sensor_id;sensor_type;location;lat;lon;timestamp;P1;durP1;ratioP1;P2;durP2;ratioP2
51866;SDS011;52862;52.504;13.480;2023-06-14T00:01:09;7.23;;;2.57;;
51866;SDS011;52862;52.504;13.480;2023-06-14T00:03:39;11.90;;;2.90;;
51866;SDS011;52862;52.504;13.480;2023-06-14T00:06:05;6.33;;;2.63;;
51866;SDS011;52862;52.504;13.480;2023-06-14T00:08:32;8.63;;;2.60;;
51866;SDS011;52862;52.504;13.480;2023-06-14T00:10:59;13.43;;;2.67;;
51866;SDS011;52862;52.504;13.480;2023-06-14T00:13:26;10.67;;;3.00;;
51866;SDS011;52862;52.504;13.480;2023-06-14T00:15:53;5.53;;;2.97;;
51866;SDS011;52862;52.504;13.480;2023-06-14T00:18:20;5.93;;;3.30;;
51866;SDS011;52862;52.504;13.480;2023-06-14T00:20:49;7.17;;;2.93;;
51866;SDS011;52862;52.504;13.480;2023-06-14T00:23:16;8.70;;;3.00;;
51866;SDS011;52862;52.504;13.480;2023-06-14T00:25:43;4.73;;;2.50;;
51866;SDS011;52862;52.504;13.480;2023-06-14T00:28:10;6.93;;;2.83;;
51866;SDS011;52862;52.504;13.480;2023-06-14T00:30:37;5.73;;;2.80;;
51866;SDS011;52862;52.504;13.480;2023-06-14T00:33:04;6.87;;;3.33;;
51866;SDS011;52862;52.504;13.480;2023-06-14T00:35:31;5.57;;;3.17;;
51866;SDS011;52862;52.504;13.480;2023-06-14T00:37:57;7.10;;;2.80;;
51866;SDS011;52862;52.504;13.480;2023-06-14T00:40:25;9.20;;;3.67;;
51866;SDS011;52862;52.504;13.480;2023-06-14T00:42:51;9.17;;;3.10;;
51866;SDS011;52862;52.504;13.480;2023-06-14T00:45:19;14.87;;;3.40;;
51866;SDS011;52862;52.504;13.480;2023-06-14T00:47:46;4.23;;;3.00;;
51866;SDS011;52862;52.504;13.480;2023-06-14T00:50:13;7.27;;;3.33;;
51866;SDS011;52862;52.504;13.480;2023-06-14T00:52:40;7.80;;;3.13;;
51866;SDS011;52862;52.504;13.480;2023-06-14T00:55:07;10.03;;;3.03;;
51866;SDS011;52862;52.504;13.480;2023-06-14T00:57:35;9.50;;;3.43;;
51866;SDS011;52862;52.504;13.480;2023-06-14T01:00:03;12.77;;;3.93;;
51866;SDS011;52862;52.504;13.480;2023-06-14T01:02:35;6.00;;;3.40;;
51866;SDS011;52862;52.504;13.480;2023-06-14T01:05:03;8.33;;;4.00;;
51866;SDS011;52862;52.504;13.480;2023-06-14T01:07:33;15.83;;;3.60;;
51866;SDS011;52862;52.504;13.480;2023-06-14T01:10:10;14.47;;;3.50;;
51866;SDS011;52862;52.504;13.480;2023-06-14T01:12:48;10.33;;;3.40;;
51866;SDS011;52862;52.504;13.480;2023-06-14T01:15:20;9.10;;;3.77;;
51866;SDS011;52862;52.504;13.480;2023-06-14T01:17:48;11.20;;;3.70;;
51866;SDS011;52862;52.504;13.480;2023-06-14T01:20:17;9.23;;;3.33;;
51866;SDS011;52862;52.504;13.480;2023-06-14T01:22:51;9.40;;;4.10;;
51866;SDS011;52862;52.504;13.480;2023-06-14T01:25:18;8.60;;;3.80;;
51866;SDS011;52862;52.504;13.480;2023-06-14T01:27:48;6.27;;;3.93;;
51866;SDS011;52862;52.504;13.480;2023-06-14T01:30:17;8.93;;;3.30;;
51866;SDS011;52862;52.504;13.480;2023-06-14T01:32:46;9.40;;;3.87;;
51866;SDS011;52862;52.504;13.480;2023-06-14T01:35:14;8.90;;;3.33;;
51866;SDS011;52862;52.504;13.480;2023-06-14T01:37:41;13.10;;;4.30;;
51866;SDS011;52862;52.504;13.480;2023-06-14T01:40:12;6.43;;;3.73;;
51866;SDS011;52862;52.504;13.480;2023-06-14T01:42:41;22.83;;;4.63;;
51866;SDS011;52862;52.504;13.480;2023-06-14T01:45:09;17.17;;;3.93;;
51866;SDS011;52862;52.504;13.480;2023-06-14T01:47:37;11.10;;;4.50;;
51866;SDS011;52862;52.504;13.480;2023-06-14T01:50:05;9.03;;;4.13;;
51866;SDS011;52862;52.504;13.480;2023-06-14T01:52:32;11.23;;;4.40;;
51866;SDS011;52862;52.504;13.480;2023-06-14T01:54:59;14.60;;;4.57;;
51866;SDS011;52862;52.504;13.480;2023-06-14T01:57:29;12.53;;;4.20;;
51866;SDS011;52862;52.504;13.480;2023-06-14T01:59:56;10.30;;;4.13;;
51866;SDS011;52862;52.504;13.480;2023-06-14T02:02:22;12.07;;;4.60;;
51866;SDS011;52862;52.504;13.480;2023-06-14T02:04:49;9.97;;;4.30;;
51866;SDS011;52862;52.504;13.480;2023-06-14T02:07:16;12.80;;;4.80;;
51866;SDS011;52862;52.504;13.480;2023-06-14T02:09:43;13.43;;;4.70;;
51866;SDS011;52862;52.504;13.480;2023-06-14T02:12:09;14.07;;;4.43;;
51866;SDS011;52862;52.504;13.480;2023-06-14T02:14:38;9.60;;;4.57;;
51866;SDS011;52862;52.504;13.480;2023-06-14T02:17:05;21.73;;;4.97;;
51866;SDS011;52862;52.504;13.480;2023-06-14T02:19:32;7.63;;;4.57;;
51866;SDS011;52862;52.504;13.480;2023-06-14T02:21:59;12.50;;;4.87;;
51866;SDS011;52862;52.504;13.480;2023-06-14T02:24:25;8.97;;;4.97;;
51866;SDS011;52862;52.504;13.480;2023-06-14T02:26:52;9.90;;;5.27;;
51866;SDS011;52862;52.504;13.480;2023-06-14T02:29:21;13.93;;;4.67;;
51866;SDS011;52862;52.504;13.480;2023-06-14T02:31:48;9.67;;;4.80;;
51866;SDS011;52862;52.504;13.480;2023-06-14T02:34:15;8.77;;;5.20;;
51866;SDS011;52862;52.504;13.480;2023-06-14T02:36:43;24.17;;;4.47;;
51866;SDS011;52862;52.504;13.480;2023-06-14T02:39:10;13.20;;;5.10;;
51866;SDS011;52862;52.504;13.480;2023-06-14T02:41:37;9.17;;;5.00;;
51866;SDS011;52862;52.504;13.480;2023-06-14T02:44:05;11.70;;;5.33;;
51866;SDS011;52862;52.504;13.480;2023-06-14T02:46:32;14.60;;;5.43;;
51866;SDS011;52862;52.504;13.480;2023-06-14T02:48:59;17.00;;;5.03;;
51866;SDS011;52862;52.504;13.480;2023-06-14T02:51:26;9.77;;;5.20;;
51866;SDS011;52862;52.504;13.480;2023-06-14T02:53:53;12.20;;;5.30;;
51866;SDS011;52862;52.504;13.480;2023-06-14T02:56:19;13.17;;;5.07;;
51866;SDS011;52862;52.504;13.480;2023-06-14T02:58:48;17.07;;;4.53;;
51866;SDS011;52862;52.504;13.480;2023-06-14T03:01:15;17.20;;;5.63;;
51866;SDS011;52862;52.504;13.480;2023-06-14T03:03:44;13.47;;;5.40;;
51866;SDS011;52862;52.504;13.480;2023-06-14T03:06:12;17.37;;;5.30;;
51866;SDS011;52862;52.504;13.480;2023-06-14T03:08:39;16.67;;;5.23;;
51866;SDS011;52862;52.504;13.480;2023-06-14T03:11:07;13.57;;;5.57;;
51866;SDS011;52862;52.504;13.480;2023-06-14T03:13:34;14.40;;;5.10;;
51866;SDS011;52862;52.504;13.480;2023-06-14T03:16:01;10.13;;;5.90;;
51866;SDS011;52862;52.504;13.480;2023-06-14T03:18:28;22.87;;;5.60;;
51866;SDS011;52862;52.504;13.480;2023-06-14T03:20:55;12.17;;;5.40;;
51866;SDS011;52862;52.504;13.480;2023-06-14T03:23:24;13.00;;;5.70;;
51866;SDS011;52862;52.504;13.480;2023-06-14T03:25:51;8.70;;;5.30;;
51866;SDS011;52862;52.504;13.480;2023-06-14T03:28:17;15.57;;;5.37;;
51866;SDS011;52862;52.504;13.480;2023-06-14T03:30:44;17.50;;;5.53;;
51866;SDS011;52862;52.504;13.480;2023-06-14T03:33:11;9.73;;;5.23;;
51866;SDS011;52862;52.504;13.480;2023-06-14T03:35:38;26.37;;;5.23;;
51866;SDS011;52862;52.504;13.480;2023-06-14T03:38:05;9.13;;;5.17;;
51866;SDS011;52862;52.504;13.480;2023-06-14T03:40:32;16.47;;;5.47;;
51866;SDS011;52862;52.504;13.480;2023-06-14T03:42:59;16.53;;;5.50;;
51866;SDS011;52862;52.504;13.480;2023-06-14T03:45:26;18.40;;;6.30;;
51866;SDS011;52862;52.504;13.480;2023-06-14T03:47:52;23.77;;;6.17;;
51866;SDS011;52862;52.504;13.480;2023-06-14T03:50:20;14.47;;;6.30;;
51866;SDS011;52862;52.504;13.480;2023-06-14T03:52:47;28.93;;;5.63;;
51866;SDS011;52862;52.504;13.480;2023-06-14T03:55:14;22.40;;;5.83;;
51866;SDS011;52862;52.504;13.480;2023-06-14T03:58:02;23.27;;;6.30;;
51866;SDS011;52862;52.504;13.480;2023-06-14T04:00:29;11.53;;;5.77;;
51866;SDS011;52862;52.504;13.480;2023-06-14T04:02:56;17.80;;;5.77;;
51866;SDS011;52862;52.504;13.480;2023-06-14T04:05:23;16.63;;;6.03;;
51866;SDS011;52862;52.504;13.480;2023-06-14T04:07:52;10.63;;;6.27;;
51866;SDS011;52862;52.504;13.480;2023-06-14T04:10:21;9.50;;;5.43;;
51866;SDS011;52862;52.504;13.480;2023-06-14T04:12:48;18.10;;;6.00;;
51866;SDS011;52862;52.504;13.480;2023-06-14T04:15:15;14.17;;;5.67;;
51866;SDS011;52862;52.504;13.480;2023-06-14T04:17:46;18.80;;;6.20;;
51866;SDS011;52862;52.504;13.480;2023-06-14T04:20:13;23.97;;;6.07;;
51866;SDS011;52862;52.504;13.480;2023-06-14T04:22:40;11.70;;;5.63;;
51866;SDS011;52862;52.504;13.480;2023-06-14T04:25:08;15.70;;;6.43;;
51866;SDS011;52862;52.504;13.480;2023-06-14T04:27:35;19.80;;;6.23;;
51866;SDS011;52862;52.504;13.480;2023-06-14T04:30:02;20.63;;;7.23;;
51866;SDS011;52862;52.504;13.480;2023-06-14T04:32:30;18.03;;;6.40;;
51866;SDS011;52862;52.504;13.480;2023-06-14T04:34:59;19.83;;;6.53;;
51866;SDS011;52862;52.504;13.480;2023-06-14T04:37:29;22.40;;;7.00;;
51866;SDS011;52862;52.504;13.480;2023-06-14T04:39:56;17.93;;;6.00;;
51866;SDS011;52862;52.504;13.480;2023-06-14T04:42:23;16.07;;;5.77;;
51866;SDS011;52862;52.504;13.480;2023-06-14T04:44:51;25.27;;;6.17;;
51866;SDS011;52862;52.504;13.480;2023-06-14T04:47:20;17.63;;;5.60;;
51866;SDS011;52862;52.504;13.480;2023-06-14T04:49:48;17.37;;;6.53;;
51866;SDS011;52862;52.504;13.480;2023-06-14T04:52:16;25.67;;;6.37;;
51866;SDS011;52862;52.504;13.480;2023-06-14T04:54:46;21.27;;;6.00;;
51866;SDS011;52862;52.504;13.480;2023-06-14T04:57:13;16.47;;;5.93;;
51866;SDS011;52862;52.504;13.480;2023-06-14T04:59:42;16.63;;;6.07;;
51866;SDS011;52862;52.504;13.480;2023-06-14T05:02:09;15.40;;;5.80;;
51866;SDS011;52862;52.504;13.480;2023-06-14T05:04:37;16.27;;;6.17;;
51866;SDS011;52862;52.504;13.480;2023-06-14T05:07:06;22.87;;;5.80;;
51866;SDS011;52862;52.504;13.480;2023-06-14T05:09:34;21.07;;;5.87;;
51866;SDS011;52862;52.504;13.480;2023-06-14T05:12:01;16.50;;;6.47;;
51866;SDS011;52862;52.504;13.480;2023-06-14T05:14:28;11.63;;;5.33;;
51866;SDS011;52862;52.504;13.480;2023-06-14T05:16:55;20.23;;;6.60;;
51866;SDS011;52862;52.504;13.480;2023-06-14T05:19:21;14.83;;;5.70;;
51866;SDS011;52862;52.504;13.480;2023-06-14T05:21:48;14.57;;;6.47;;
51866;SDS011;52862;52.504;13.480;2023-06-14T05:24:15;11.60;;;5.87;;
51866;SDS011;52862;52.504;13.480;2023-06-14T05:26:43;30.97;;;6.90;;
51866;SDS011;52862;52.504;13.480;2023-06-14T05:29:10;18.83;;;6.30;;
51866;SDS011;52862;52.504;13.480;2023-06-14T05:31:37;14.53;;;6.20;;
51866;SDS011;52862;52.504;13.480;2023-06-14T05:34:04;24.07;;;6.57;;
51866;SDS011;52862;52.504;13.480;2023-06-14T05:36:31;21.40;;;5.90;;
51866;SDS011;52862;52.504;13.480;2023-06-14T05:38:57;14.47;;;6.47;;
51866;SDS011;52862;52.504;13.480;2023-06-14T05:41:27;15.97;;;5.40;;
51866;SDS011;52862;52.504;13.480;2023-06-14T05:43:54;14.40;;;6.60;;
51866;SDS011;52862;52.504;13.480;2023-06-14T05:46:21;18.13;;;6.07;;
51866;SDS011;52862;52.504;13.480;2023-06-14T05:48:51;11.83;;;6.30;;
51866;SDS011;52862;52.504;13.480;2023-06-14T05:51:17;19.60;;;6.40;;
51866;SDS011;52862;52.504;13.480;2023-06-14T05:53:44;26.70;;;8.53;;
51866;SDS011;52862;52.504;13.480;2023-06-14T05:56:11;28.10;;;6.20;;
51866;SDS011;52862;52.504;13.480;2023-06-14T05:58:39;19.17;;;6.53;;
51866;SDS011;52862;52.504;13.480;2023-06-14T06:01:05;16.43;;;6.83;;
51866;SDS011;52862;52.504;13.480;2023-06-14T06:03:33;32.33;;;6.57;;
51866;SDS011;52862;52.504;13.480;2023-06-14T06:05:59;35.30;;;7.40;;
51866;SDS011;52862;52.504;13.480;2023-06-14T06:08:26;37.43;;;6.67;;
51866;SDS011;52862;52.504;13.480;2023-06-14T06:10:53;20.73;;;6.57;;
51866;SDS011;52862;52.504;13.480;2023-06-14T06:13:20;23.93;;;5.57;;
51866;SDS011;52862;52.504;13.480;2023-06-14T06:15:47;25.33;;;7.20;;
51866;SDS011;52862;52.504;13.480;2023-06-14T06:18:14;20.10;;;7.20;;
51866;SDS011;52862;52.504;13.480;2023-06-14T06:20:41;23.60;;;6.30;;
51866;SDS011;52862;52.504;13.480;2023-06-14T06:23:09;23.47;;;6.23;;
51866;SDS011;52862;52.504;13.480;2023-06-14T06:25:36;22.37;;;5.60;;
51866;SDS011;52862;52.504;13.480;2023-06-14T06:28:02;27.83;;;8.67;;
51866;SDS011;52862;52.504;13.480;2023-06-14T06:30:29;17.23;;;6.40;;
51866;SDS011;52862;52.504;13.480;2023-06-14T06:32:57;16.63;;;5.77;;
51866;SDS011;52862;52.504;13.480;2023-06-14T06:35:25;33.30;;;6.33;;
51866;SDS011;52862;52.504;13.480;2023-06-14T06:37:51;29.47;;;6.17;;
51866;SDS011;52862;52.504;13.480;2023-06-14T06:40:18;11.97;;;5.97;;
51866;SDS011;52862;52.504;13.480;2023-06-14T06:42:45;28.90;;;5.90;;
51866;SDS011;52862;52.504;13.480;2023-06-14T06:45:12;30.37;;;6.07;;
51866;SDS011;52862;52.504;13.480;2023-06-14T06:47:39;27.47;;;6.00;;
51866;SDS011;52862;52.504;13.480;2023-06-14T06:50:07;37.10;;;7.43;;
51866;SDS011;52862;52.504;13.480;2023-06-14T06:52:34;18.13;;;6.47;;
51866;SDS011;52862;52.504;13.480;2023-06-14T06:55:02;14.27;;;5.63;;
51866;SDS011;52862;52.504;13.480;2023-06-14T06:57:28;24.63;;;6.83;;
51866;SDS011;52862;52.504;13.480;2023-06-14T06:59:56;23.77;;;5.70;;
51866;SDS011;52862;52.504;13.480;2023-06-14T07:02:23;35.27;;;6.23;;
51866;SDS011;52862;52.504;13.480;2023-06-14T07:04:50;15.97;;;5.57;;
51866;SDS011;52862;52.504;13.480;2023-06-14T07:07:18;17.47;;;5.63;;
51866;SDS011;52862;52.504;13.480;2023-06-14T07:09:45;27.03;;;6.07;;
51866;SDS011;52862;52.504;13.480;2023-06-14T07:12:11;16.58;;;5.60;;
51866;SDS011;52862;52.504;13.480;2023-06-14T07:14:38;22.57;;;5.60;;
51866;SDS011;52862;52.504;13.480;2023-06-14T07:17:05;28.48;;;6.47;;
51866;SDS011;52862;52.504;13.480;2023-06-14T07:19:31;20.07;;;5.43;;
51866;SDS011;52862;52.504;13.480;2023-06-14T07:21:58;33.20;;;5.47;;
51866;SDS011;52862;52.504;13.480;2023-06-14T07:24:26;34.20;;;6.28;;
51866;SDS011;52862;52.504;13.480;2023-06-14T07:26:54;21.42;;;4.90;;
51866;SDS011;52862;52.504;13.480;2023-06-14T07:29:21;25.42;;;5.45;;
51866;SDS011;52862;52.504;13.480;2023-06-14T07:31:51;19.88;;;5.78;;
51866;SDS011;52862;52.504;13.480;2023-06-14T07:34:18;13.82;;;5.70;;
51866;SDS011;52862;52.504;13.480;2023-06-14T07:36:44;14.07;;;5.68;;
51866;SDS011;52862;52.504;13.480;2023-06-14T07:39:11;16.20;;;5.30;;
51866;SDS011;52862;52.504;13.480;2023-06-14T07:41:39;17.85;;;5.35;;
51866;SDS011;52862;52.504;13.480;2023-06-14T07:44:06;24.42;;;5.40;;
51866;SDS011;52862;52.504;13.480;2023-06-14T07:46:32;22.25;;;5.95;;
51866;SDS011;52862;52.504;13.480;2023-06-14T07:49:00;20.80;;;5.70;;
51866;SDS011;52862;52.504;13.480;2023-06-14T07:51:27;26.02;;;5.25;;
51866;SDS011;52862;52.504;13.480;2023-06-14T07:53:53;21.70;;;6.03;;
51866;SDS011;52862;52.504;13.480;2023-06-14T07:56:20;23.73;;;5.32;;
51866;SDS011;52862;52.504;13.480;2023-06-14T07:58:48;19.63;;;5.10;;
51866;SDS011;52862;52.504;13.480;2023-06-14T08:01:14;20.83;;;5.53;;
51866;SDS011;52862;52.504;13.480;2023-06-14T08:03:42;13.30;;;5.63;;
51866;SDS011;52862;52.504;13.480;2023-06-14T08:06:09;16.77;;;4.88;;
51866;SDS011;52862;52.504;13.480;2023-06-14T08:08:36;17.08;;;5.32;;
51866;SDS011;52862;52.504;13.480;2023-06-14T08:11:02;26.58;;;5.65;;
51866;SDS011;52862;52.504;13.480;2023-06-14T08:13:29;20.20;;;5.13;;
51866;SDS011;52862;52.504;13.480;2023-06-14T08:15:56;24.55;;;6.13;;
51866;SDS011;52862;52.504;13.480;2023-06-14T08:18:23;14.85;;;5.00;;
51866;SDS011;52862;52.504;13.480;2023-06-14T08:20:50;12.45;;;4.55;;
51866;SDS011;52862;52.504;13.480;2023-06-14T08:23:18;14.05;;;4.50;;
51866;SDS011;52862;52.504;13.480;2023-06-14T08:25:46;18.95;;;4.40;;
51866;SDS011;52862;52.504;13.480;2023-06-14T08:28:13;26.02;;;4.35;;
51866;SDS011;52862;52.504;13.480;2023-06-14T08:30:40;22.30;;;4.25;;
51866;SDS011;52862;52.504;13.480;2023-06-14T08:33:09;15.07;;;4.65;;
51866;SDS011;52862;52.504;13.480;2023-06-14T08:35:42;25.02;;;5.57;;
51866;SDS011;52862;52.504;13.480;2023-06-14T08:38:09;8.30;;;3.70;;
51866;SDS011;52862;52.504;13.480;2023-06-14T08:40:37;10.77;;;4.28;;
51866;SDS011;52862;52.504;13.480;2023-06-14T08:43:04;12.68;;;4.10;;
51866;SDS011;52862;52.504;13.480;2023-06-14T08:45:31;20.40;;;3.78;;
51866;SDS011;52862;52.504;13.480;2023-06-14T08:47:58;16.90;;;3.97;;
51866;SDS011;52862;52.504;13.480;2023-06-14T08:50:26;16.08;;;4.30;;
51866;SDS011;52862;52.504;13.480;2023-06-14T08:52:56;23.30;;;4.60;;
51866;SDS011;52862;52.504;13.480;2023-06-14T08:55:26;18.17;;;3.60;;
51866;SDS011;52862;52.504;13.480;2023-06-14T08:57:54;17.50;;;3.83;;
51866;SDS011;52862;52.504;13.480;2023-06-14T09:00:23;17.20;;;5.35;;
51866;SDS011;52862;52.504;13.480;2023-06-14T09:02:50;7.78;;;3.85;;
51866;SDS011;52862;52.504;13.480;2023-06-14T09:05:22;14.95;;;3.67;;
51866;SDS011;52862;52.504;13.480;2023-06-14T09:07:50;16.17;;;3.97;;
51866;SDS011;52862;52.504;13.480;2023-06-14T09:10:16;8.90;;;3.63;;
51866;SDS011;52862;52.504;13.480;2023-06-14T09:12:43;7.18;;;3.25;;
51866;SDS011;52862;52.504;13.480;2023-06-14T09:15:10;17.15;;;3.92;;
51866;SDS011;52862;52.504;13.480;2023-06-14T09:17:37;10.30;;;4.15;;
51866;SDS011;52862;52.504;13.480;2023-06-14T09:20:05;11.82;;;3.75;;
51866;SDS011;52862;52.504;13.480;2023-06-14T09:22:35;7.47;;;3.20;;
51866;SDS011;52862;52.504;13.480;2023-06-14T09:25:02;7.35;;;3.20;;
51866;SDS011;52862;52.504;13.480;2023-06-14T09:27:30;9.68;;;3.17;;
51866;SDS011;52862;52.504;13.480;2023-06-14T09:30:00;13.90;;;3.65;;
51866;SDS011;52862;52.504;13.480;2023-06-14T09:32:27;13.82;;;3.53;;
51866;SDS011;52862;52.504;13.480;2023-06-14T09:34:54;16.50;;;3.78;;
51866;SDS011;52862;52.504;13.480;2023-06-14T09:37:28;9.70;;;4.13;;
51866;SDS011;52862;52.504;13.480;2023-06-14T09:39:55;16.80;;;3.15;;
51866;SDS011;52862;52.504;13.480;2023-06-14T09:42:23;19.83;;;3.53;;
51866;SDS011;52862;52.504;13.480;2023-06-14T09:44:51;23.30;;;3.63;;
51866;SDS011;52862;52.504;13.480;2023-06-14T09:47:19;18.33;;;3.90;;
51866;SDS011;52862;52.504;13.480;2023-06-14T09:49:46;14.95;;;3.72;;
51866;SDS011;52862;52.504;13.480;2023-06-14T09:52:14;22.60;;;3.90;;
51866;SDS011;52862;52.504;13.480;2023-06-14T09:54:42;9.18;;;3.50;;
51866;SDS011;52862;52.504;13.480;2023-06-14T09:57:10;18.25;;;3.88;;
51866;SDS011;52862;52.504;13.480;2023-06-14T09:59:39;13.88;;;4.07;;
51866;SDS011;52862;52.504;13.480;2023-06-14T10:02:09;9.27;;;3.85;;
51866;SDS011;52862;52.504;13.480;2023-06-14T10:04:40;19.25;;;3.72;;
51866;SDS011;52862;52.504;13.480;2023-06-14T10:07:13;17.00;;;3.85;;
51866;SDS011;52862;52.504;13.480;2023-06-14T10:09:43;8.82;;;3.65;;
51866;SDS011;52862;52.504;13.480;2023-06-14T10:12:16;18.73;;;4.00;;
51866;SDS011;52862;52.504;13.480;2023-06-14T10:14:47;12.98;;;3.65;;
51866;SDS011;52862;52.504;13.480;2023-06-14T10:17:17;14.50;;;3.33;;
51866;SDS011;52862;52.504;13.480;2023-06-14T10:19:54;8.80;;;3.85;;
51866;SDS011;52862;52.504;13.480;2023-06-14T10:22:26;12.70;;;4.38;;
51866;SDS011;52862;52.504;13.480;2023-06-14T10:24:56;16.55;;;3.60;;
51866;SDS011;52862;52.504;13.480;2023-06-14T10:27:23;11.00;;;3.33;;
51866;SDS011;52862;52.504;13.480;2023-06-14T10:30:04;19.10;;;3.33;;
51866;SDS011;52862;52.504;13.480;2023-06-14T10:32:33;14.30;;;4.43;;
51866;SDS011;52862;52.504;13.480;2023-06-14T10:35:01;18.30;;;4.15;;
51866;SDS011;52862;52.504;13.480;2023-06-14T10:37:31;19.48;;;4.40;;
51866;SDS011;52862;52.504;13.480;2023-06-14T10:39:58;17.58;;;4.18;;
51866;SDS011;52862;52.504;13.480;2023-06-14T10:42:27;8.43;;;3.97;;
51866;SDS011;52862;52.504;13.480;2023-06-14T10:44:57;13.70;;;3.60;;
51866;SDS011;52862;52.504;13.480;2023-06-14T10:47:26;11.70;;;3.80;;
51866;SDS011;52862;52.504;13.480;2023-06-14T10:49:54;19.67;;;3.85;;
51866;SDS011;52862;52.504;13.480;2023-06-14T10:52:23;8.90;;;3.75;;
51866;SDS011;52862;52.504;13.480;2023-06-14T10:55:00;10.88;;;3.72;;
51866;SDS011;52862;52.504;13.480;2023-06-14T10:57:38;19.95;;;3.53;;
51866;SDS011;52862;52.504;13.480;2023-06-14T11:00:17;20.85;;;4.40;;
51866;SDS011;52862;52.504;13.480;2023-06-14T11:05:54;10.40;;;4.72;;
51866;SDS011;52862;52.504;13.480;2023-06-14T11:08:27;11.18;;;4.40;;
51866;SDS011;52862;52.504;13.480;2023-06-14T11:11:07;14.95;;;3.95;;
51866;SDS011;52862;52.504;13.480;2023-06-14T11:13:34;17.23;;;3.65;;
51866;SDS011;52862;52.504;13.480;2023-06-14T11:16:09;13.07;;;4.90;;
51866;SDS011;52862;52.504;13.480;2023-06-14T11:18:37;24.85;;;4.28;;
51866;SDS011;52862;52.504;13.480;2023-06-14T11:21:04;10.13;;;3.75;;
51866;SDS011;52862;52.504;13.480;2023-06-14T11:23:31;23.50;;;3.60;;
51866;SDS011;52862;52.504;13.480;2023-06-14T11:25:58;14.20;;;3.95;;
51866;SDS011;52862;52.504;13.480;2023-06-14T11:28:35;20.20;;;3.80;;
51866;SDS011;52862;52.504;13.480;2023-06-14T11:31:02;9.95;;;3.30;;
51866;SDS011;52862;52.504;13.480;2023-06-14T11:33:30;15.20;;;3.78;;
51866;SDS011;52862;52.504;13.480;2023-06-14T11:35:57;12.55;;;3.83;;
51866;SDS011;52862;52.504;13.480;2023-06-14T11:38:25;21.80;;;3.65;;
51866;SDS011;52862;52.504;13.480;2023-06-14T11:40:52;8.93;;;4.25;;
51866;SDS011;52862;52.504;13.480;2023-06-14T11:43:19;19.98;;;4.25;;
51866;SDS011;52862;52.504;13.480;2023-06-14T11:45:47;20.38;;;3.75;;
51866;SDS011;52862;52.504;13.480;2023-06-14T11:48:35;8.48;;;3.97;;
51866;SDS011;52862;52.504;13.480;2023-06-14T11:51:02;23.48;;;4.07;;
51866;SDS011;52862;52.504;13.480;2023-06-14T11:53:30;27.85;;;4.00;;
51866;SDS011;52862;52.504;13.480;2023-06-14T11:55:57;9.45;;;3.55;;
51866;SDS011;52862;52.504;13.480;2023-06-14T11:58:23;17.67;;;3.72;;
51866;SDS011;52862;52.504;13.480;2023-06-14T12:00:52;12.38;;;3.47;;
51866;SDS011;52862;52.504;13.480;2023-06-14T12:03:22;15.15;;;3.72;;
51866;SDS011;52862;52.504;13.480;2023-06-14T12:05:50;14.02;;;3.78;;
51866;SDS011;52862;52.504;13.480;2023-06-14T12:08:32;11.20;;;4.30;;
51866;SDS011;52862;52.504;13.480;2023-06-14T12:11:04;17.42;;;4.25;;
51866;SDS011;52862;52.504;13.480;2023-06-14T12:13:31;17.63;;;3.88;;
51866;SDS011;52862;52.504;13.480;2023-06-14T12:15:58;16.50;;;3.92;;
51866;SDS011;52862;52.504;13.480;2023-06-14T12:18:32;21.98;;;3.80;;
51866;SDS011;52862;52.504;13.480;2023-06-14T12:21:00;11.07;;;3.42;;
51866;SDS011;52862;52.504;13.480;2023-06-14T12:23:38;17.80;;;4.55;;
51866;SDS011;52862;52.504;13.480;2023-06-14T12:26:08;13.18;;;3.63;;
51866;SDS011;52862;52.504;13.480;2023-06-14T12:28:37;17.35;;;3.33;;
51866;SDS011;52862;52.504;13.480;2023-06-14T12:31:05;18.42;;;3.30;;
51866;SDS011;52862;52.504;13.480;2023-06-14T12:33:32;7.35;;;3.38;;
51866;SDS011;52862;52.504;13.480;2023-06-14T12:35:59;18.70;;;3.72;;
51866;SDS011;52862;52.504;13.480;2023-06-14T12:38:28;18.30;;;3.60;;
51866;SDS011;52862;52.504;13.480;2023-06-14T12:40:56;12.68;;;3.08;;
51866;SDS011;52862;52.504;13.480;2023-06-14T12:43:23;11.07;;;3.47;;
51866;SDS011;52862;52.504;13.480;2023-06-14T12:45:49;17.85;;;3.22;;
51866;SDS011;52862;52.504;13.480;2023-06-14T12:48:16;7.90;;;2.85;;
51866;SDS011;52862;52.504;13.480;2023-06-14T12:50:43;21.27;;;3.97;;
51866;SDS011;52862;52.504;13.480;2023-06-14T12:53:10;12.20;;;3.00;;
51866;SDS011;52862;52.504;13.480;2023-06-14T12:55:37;28.38;;;3.10;;
51866;SDS011;52862;52.504;13.480;2023-06-14T12:58:04;25.75;;;3.20;;
51866;SDS011;52862;52.504;13.480;2023-06-14T13:00:31;22.17;;;3.47;;
51866;SDS011;52862;52.504;13.480;2023-06-14T13:02:58;19.00;;;3.38;;
51866;SDS011;52862;52.504;13.480;2023-06-14T13:05:25;6.25;;;3.30;;
51866;SDS011;52862;52.504;13.480;2023-06-14T13:07:51;17.63;;;4.10;;
51866;SDS011;52862;52.504;13.480;2023-06-14T13:10:18;18.83;;;3.72;;
51866;SDS011;52862;52.504;13.480;2023-06-14T13:12:45;7.38;;;3.25;;
51866;SDS011;52862;52.504;13.480;2023-06-14T13:15:12;19.05;;;3.20;;
51866;SDS011;52862;52.504;13.480;2023-06-14T13:17:40;13.05;;;3.72;;
51866;SDS011;52862;52.504;13.480;2023-06-14T13:20:09;6.43;;;3.20;;
51866;SDS011;52862;52.504;13.480;2023-06-14T13:22:36;10.45;;;4.10;;
51866;SDS011;52862;52.504;13.480;2023-06-14T13:25:04;20.90;;;3.92;;
51866;SDS011;52862;52.504;13.480;2023-06-14T13:27:32;29.85;;;3.50;;
51866;SDS011;52862;52.504;13.480;2023-06-14T13:29:59;14.57;;;3.58;;
51866;SDS011;52862;52.504;13.480;2023-06-14T13:32:26;5.93;;;3.50;;
51866;SDS011;52862;52.504;13.480;2023-06-14T13:34:54;12.70;;;3.58;;
51866;SDS011;52862;52.504;13.480;2023-06-14T13:37:20;11.02;;;3.45;;
51866;SDS011;52862;52.504;13.480;2023-06-14T13:39:47;11.80;;;3.65;;
51866;SDS011;52862;52.504;13.480;2023-06-14T13:42:14;12.82;;;3.22;;
51866;SDS011;52862;52.504;13.480;2023-06-14T13:44:40;16.42;;;2.85;;
51866;SDS011;52862;52.504;13.480;2023-06-14T13:47:07;16.02;;;4.07;;
51866;SDS011;52862;52.504;13.480;2023-06-14T13:49:34;13.68;;;4.03;;
51866;SDS011;52862;52.504;13.480;2023-06-14T13:52:01;15.65;;;3.50;;
51866;SDS011;52862;52.504;13.480;2023-06-14T13:54:28;7.25;;;3.25;;
51866;SDS011;52862;52.504;13.480;2023-06-14T13:56:55;15.95;;;3.38;;
51866;SDS011;52862;52.504;13.480;2023-06-14T13:59:22;8.68;;;3.22;;
51866;SDS011;52862;52.504;13.480;2023-06-14T14:01:49;9.35;;;3.30;;
51866;SDS011;52862;52.504;13.480;2023-06-14T14:04:15;13.20;;;3.47;;
51866;SDS011;52862;52.504;13.480;2023-06-14T14:06:43;17.35;;;3.95;;
51866;SDS011;52862;52.504;13.480;2023-06-14T14:09:13;17.77;;;3.47;;
51866;SDS011;52862;52.504;13.480;2023-06-14T14:11:40;10.75;;;3.50;;
51866;SDS011;52862;52.504;13.480;2023-06-14T14:14:08;14.75;;;4.22;;
51866;SDS011;52862;52.504;13.480;2023-06-14T14:16:35;8.35;;;2.92;;
51866;SDS011;52862;52.504;13.480;2023-06-14T14:19:03;13.85;;;4.53;;
51866;SDS011;52862;52.504;13.480;2023-06-14T14:21:29;10.40;;;3.40;;
51866;SDS011;52862;52.504;13.480;2023-06-14T14:23:57;13.75;;;4.20;;
51866;SDS011;52862;52.504;13.480;2023-06-14T14:26:24;9.55;;;3.10;;
51866;SDS011;52862;52.504;13.480;2023-06-14T14:28:51;11.82;;;3.25;;
51866;SDS011;52862;52.504;13.480;2023-06-14T14:31:18;7.38;;;3.15;;